Hlavní strana
METAR-TAF:

METAR-TAF

Letiště :

Pécs, Maďarsko

zeměpisná šířka: 46-06N, zeměpisná délka: 018-14E, výška: 201 m

Aktuální stav počasí

Zpráva byla vytvořena před 12 hodinami a 9 minutami, v 16:45 UTC
Východojihovýchodní vítr 6 kt
Teplota 4°C
Vlhkost vzduchu 81%
Tlak 1020 hPa
Viditelnost: 8000 m
Oblačno až skoro zataženo ve výšce 2000 ft

METAR: LHPP 171645Z 11006KT 8000 BKN020 04/01 Q1020

Čas: 05:54 (04:54 UTC)

Předpověď počasí

Zpráva byla vytvořena před 14 hodinami a 39 minutami, v 14:15 UTC
Předpověď platná od 17 v 15 UTC do 17 v 24 UTC
Východojihovýchodní vítr 8 kt
Viditelnost: 8000 m
Oblačno až skoro zataženo ve výšce 1500 ft
Zataženo ve výšce 5000 ft
Dočasný
od 17 v 17 UTC do 17 v 24 UTC
Viditelnost: 4000 m
Oblačno až skoro zataženo ve výšce 1000 ft
Zataženo ve výšce 3000 ft
slabý déšť, sníh, slabý déšť

TAF: LHPP 171415Z 1715/1724 11008KT 8000 BKN015 OVC050 TEMPO 1717/1724 4000 -RASN -RA BKN010 OVC030

Stav a předpovědi počasí z více než 4 000 letišť (zprávy METAR a TAF).

Červené a žluté tečky na mapě představují dostupné meteorologické stanice.

Když kurzor umístíte na tečku, zobrazí se název stanice.

Pak kliknutím zobrazíte stav a předpověď počasí.

Chcete-li změnit mapu, kliknutím na zelené tlačítko se znaménkem +mapu přiblížíte, kliknutím na zelené tlačítko se znaménkem – mapu oddálíte a kliknutím na zelené šipky přejdete na sousední mapy.


METAR-TAF: